createdAt,value
2022-08-09T00:00:04.138Z,16.96
2022-08-09T00:02:35.831Z,17.02
2022-08-09T00:06:18.188Z,17.10
2022-08-09T00:07:56.665Z,17.11
2022-08-09T00:10:31.653Z,17.15
2022-08-09T00:13:16.650Z,17.18
2022-08-09T00:15:58.745Z,17.08
2022-08-09T00:18:34.882Z,16.98
2022-08-09T00:21:07.969Z,16.96
2022-08-09T00:23:58.135Z,16.94
2022-08-09T00:26:33.255Z,16.93
2022-08-09T00:29:03.620Z,16.76
2022-08-09T00:31:57.758Z,16.63
2022-08-09T00:34:32.618Z,16.72
2022-08-09T00:37:03.547Z,16.49
2022-08-09T00:40:12.391Z,16.29
2022-08-09T00:44:25.623Z,16.34
2022-08-09T00:45:16.026Z,16.18
2022-08-09T00:47:47.202Z,16.07
2022-08-09T00:52:49.985Z,16.06
2022-08-09T00:56:02.986Z,16.10
2022-08-09T00:58:09.165Z,16.04
2022-08-09T01:00:46.167Z,15.99
2022-08-09T01:03:21.911Z,16.02
2022-08-09T01:06:13.884Z,16.03
2022-08-09T01:09:06.023Z,15.96
2022-08-09T01:11:55.349Z,15.90
2022-08-09T01:14:32.455Z,15.87
2022-08-09T01:17:11.150Z,15.75
2022-08-09T01:20:01.692Z,15.71
2022-08-09T01:22:55.038Z,15.70
2022-08-09T01:25:48.830Z,15.72
2022-08-09T01:28:25.995Z,15.70
2022-08-09T01:30:59.217Z,15.68
2022-08-09T01:33:32.454Z,15.59
2022-08-09T01:36:06.764Z,15.52
2022-08-09T01:38:41.204Z,15.33
2022-08-09T01:41:18.910Z,15.33
2022-08-09T01:44:00.819Z,15.32
2022-08-09T01:46:34.100Z,15.29
2022-08-09T01:49:09.655Z,15.25
2022-08-09T01:51:53.644Z,15.11
2022-08-09T01:54:32.617Z,15.11
2022-08-09T01:57:11.453Z,14.93
2022-08-09T01:59:52.346Z,14.89
2022-08-09T02:02:31.028Z,14.53
2022-08-09T02:05:05.563Z,14.53
2022-08-09T02:08:39.692Z,14.41
2022-08-09T02:10:43.046Z,14.09
2022-08-09T02:13:26.303Z,13.88
2022-08-09T02:16:12.459Z,13.69
2022-08-09T02:18:47.974Z,13.72
2022-08-09T02:21:24.114Z,13.78
2022-08-09T02:24:00.304Z,13.82
2022-08-09T02:26:36.573Z,13.80
2022-08-09T02:29:15.141Z,14.22
2022-08-09T02:31:48.980Z,14.35
2022-08-09T02:34:40.802Z,14.30
2022-08-09T02:37:18.683Z,14.42
2022-08-09T02:39:55.308Z,14.70
2022-08-09T02:42:37.414Z,15.11
2022-08-09T02:45:11.420Z,15.02
2022-08-09T02:47:46.308Z,15.30
2022-08-09T02:50:32.745Z,15.56
2022-08-09T02:53:09.553Z,15.56
2022-08-09T02:55:59.486Z,15.67
2022-08-09T02:58:36.657Z,15.83
2022-08-09T03:01:10.951Z,15.95
2022-08-09T03:04:16.767Z,16.07
2022-08-09T03:06:34.952Z,15.84
2022-08-09T03:09:06.818Z,15.82
2022-08-09T03:12:09.620Z,16.21
2022-08-09T03:14:29.467Z,16.50
2022-08-09T03:17:02.091Z,16.44
2022-08-09T03:19:59.617Z,16.75
2022-08-09T03:22:30.435Z,16.93
2022-08-09T03:25:16.167Z,17.08
2022-08-09T03:27:55.229Z,17.45
2022-08-09T03:30:29.861Z,17.76
2022-08-09T03:33:17.135Z,17.91
2022-08-09T03:36:15.498Z,18.14
2022-08-09T03:38:43.001Z,18.04
2022-08-09T03:41:16.266Z,17.87
2022-08-09T03:44:04.070Z,17.92
2022-08-09T03:46:37.755Z,17.69
2022-08-09T03:49:09.872Z,17.50
2022-08-09T03:53:50.147Z,17.48
2022-08-09T03:56:20.334Z,17.65
2022-08-09T03:58:50.114Z,17.77
2022-08-09T04:01:20.077Z,17.75
2022-08-09T04:04:01.359Z,17.60
2022-08-09T04:06:33.521Z,17.63
2022-08-09T04:09:15.108Z,17.46
2022-08-09T04:12:31.089Z,17.27
2022-08-09T04:15:11.608Z,17.29
2022-08-09T04:17:47.583Z,17.51
2022-08-09T04:20:18.751Z,17.61
2022-08-09T04:22:50.436Z,17.68
2022-08-09T04:25:21.438Z,17.65
2022-08-09T04:27:51.650Z,17.68
2022-08-09T04:30:26.111Z,17.73
2022-08-09T04:33:00.264Z,17.92
2022-08-09T04:35:32.788Z,18.26
2022-08-09T04:38:03.579Z,18.64
2022-08-09T04:40:56.093Z,18.92
2022-08-09T04:43:27.264Z,19.20
2022-08-09T04:46:03.097Z,19.53
2022-08-09T04:48:33.166Z,19.81
2022-08-09T04:51:03.166Z,20.11
2022-08-09T04:53:32.700Z,20.22
2022-08-09T04:56:05.885Z,20.32
2022-08-09T04:58:35.850Z,20.38
2022-08-09T05:01:05.667Z,20.50
2022-08-09T05:03:46.212Z,20.87
2022-08-09T05:06:27.346Z,21.08
2022-08-09T05:09:00.728Z,21.21
2022-08-09T05:11:35.931Z,21.44
2022-08-09T05:14:06.714Z,21.59
2022-08-09T05:16:43.607Z,21.79
2022-08-09T05:19:31.811Z,21.91
2022-08-09T05:22:35.067Z,22.03
2022-08-09T05:25:04.382Z,22.23
2022-08-09T05:27:35.244Z,22.42
2022-08-09T05:30:19.384Z,22.53
2022-08-09T05:32:50.857Z,22.62
2022-08-09T05:35:22.904Z,22.78
2022-08-09T05:37:52.412Z,22.86
2022-08-09T05:40:21.975Z,23.01
2022-08-09T05:42:53.453Z,23.14
2022-08-09T05:45:24.847Z,23.22
2022-08-09T05:47:59.215Z,23.27
2022-08-09T05:50:50.570Z,23.39
2022-08-09T05:53:21.635Z,23.61
2022-08-09T05:56:02.080Z,23.75
2022-08-09T05:58:32.870Z,23.88
2022-08-09T06:01:02.296Z,23.90
2022-08-09T06:03:34.809Z,23.99
2022-08-09T06:06:21.334Z,24.16
2022-08-09T06:08:52.750Z,24.29
2022-08-09T06:11:40.636Z,24.35
2022-08-09T06:14:13.500Z,24.44
2022-08-09T06:16:43.804Z,24.47
2022-08-09T06:19:22.061Z,24.56
2022-08-09T06:21:58.729Z,24.47
2022-08-09T06:24:30.139Z,24.46
2022-08-09T06:27:00.964Z,24.44
2022-08-09T06:29:31.865Z,24.64
2022-08-09T06:32:59.192Z,24.81
2022-08-09T06:35:09.585Z,24.85
2022-08-09T06:37:52.837Z,24.87
2022-08-09T06:40:28.782Z,24.89
2022-08-09T06:43:01.302Z,24.95
2022-08-09T06:46:08.062Z,24.91
2022-08-09T06:48:26.147Z,25.08
2022-08-09T06:53:49.929Z,25.31
2022-08-09T06:56:19.413Z,25.51
2022-08-09T07:00:49.991Z,25.70
2022-08-09T07:01:54.098Z,25.91
2022-08-09T07:04:27.851Z,26.25
2022-08-09T07:07:00.525Z,26.14
2022-08-09T07:09:54.853Z,26.10
2022-08-09T07:12:21.692Z,26.42
2022-08-09T07:16:35.301Z,26.48
2022-08-09T07:18:02.394Z,26.47
2022-08-09T07:20:32.689Z,26.50
2022-08-09T07:23:02.644Z,26.69
2022-08-09T07:25:52.219Z,26.77
2022-08-09T07:28:30.947Z,26.74
2022-08-09T07:31:05.081Z,26.77
2022-08-09T07:33:52.977Z,26.72
2022-08-09T07:36:24.170Z,26.74
2022-08-09T07:39:00.751Z,26.83
2022-08-09T07:41:38.591Z,27.16
2022-08-09T07:44:08.422Z,27.44
2022-08-09T07:46:41.453Z,27.66
2022-08-09T07:49:15.502Z,27.62
2022-08-09T07:52:06.229Z,27.38
2022-08-09T07:54:34.517Z,27.39
2022-08-09T07:57:11.872Z,27.61
2022-08-09T07:59:51.854Z,27.73
2022-08-09T08:02:29.926Z,27.84
2022-08-09T08:04:59.387Z,27.91
2022-08-09T08:08:43.597Z,27.91
2022-08-09T08:10:18.489Z,28.12
2022-08-09T08:12:49.769Z,28.27
2022-08-09T08:15:24.092Z,28.35
2022-08-09T08:17:58.678Z,28.37
2022-08-09T08:20:33.084Z,28.47
2022-08-09T08:23:16.110Z,28.47
2022-08-09T08:25:49.829Z,28.42
2022-08-09T08:28:31.924Z,28.31
2022-08-09T08:31:13.904Z,28.08
2022-08-09T08:33:53.137Z,28.22
2022-08-09T08:36:28.624Z,28.11
2022-08-09T08:38:58.903Z,27.99
2022-08-09T08:41:42.196Z,28.17
2022-08-09T08:44:27.086Z,28.42
2022-08-09T08:47:03.234Z,28.50
2022-08-09T08:49:47.367Z,28.37
2022-08-09T08:52:52.500Z,28.36
2022-08-09T08:55:13.662Z,28.50
2022-08-09T08:57:56.567Z,28.60
2022-08-09T09:00:29.976Z,28.73
2022-08-09T09:03:11.306Z,28.93
2022-08-09T09:06:00.438Z,28.94
2022-08-09T09:08:42.270Z,28.94
2022-08-09T09:11:19.742Z,29.17
2022-08-09T09:13:55.407Z,29.14
2022-08-09T09:16:34.343Z,29.07
2022-08-09T09:19:37.847Z,29.11
2022-08-09T09:22:07.593Z,29.21
2022-08-09T09:24:40.458Z,29.07
2022-08-09T09:28:03.169Z,28.82
2022-08-09T09:30:39.817Z,28.77
2022-08-09T09:33:14.408Z,28.69
2022-08-09T09:36:01.679Z,28.51
2022-08-09T09:38:50.577Z,28.43
2022-08-09T09:41:48.965Z,28.29
2022-08-09T09:44:31.466Z,28.42
2022-08-09T09:47:08.660Z,28.52
2022-08-09T09:50:07.516Z,28.65
2022-08-09T09:54:00.808Z,28.35
2022-08-09T09:56:34.561Z,28.38
2022-08-09T09:59:04.210Z,28.34
2022-08-09T10:01:37.762Z,28.50
2022-08-09T10:04:22.830Z,28.43
2022-08-09T10:07:03.664Z,28.50
2022-08-09T10:09:54.495Z,28.86
2022-08-09T10:12:31.489Z,28.97
2022-08-09T10:15:17.443Z,29.01
2022-08-09T10:17:56.768Z,28.74
2022-08-09T10:20:35.726Z,28.88
2022-08-09T10:23:20.328Z,29.04
2022-08-09T10:26:04.284Z,29.21
2022-08-09T10:28:39.870Z,29.07
2022-08-09T10:34:07.987Z,28.91
2022-08-09T10:36:42.274Z,29.07
2022-08-09T10:39:15.457Z,29.09
2022-08-09T10:41:49.684Z,28.57
2022-08-09T10:44:23.118Z,28.65
2022-08-09T10:48:17.296Z,28.48
2022-08-09T10:50:50.587Z,28.26
2022-08-09T10:53:46.959Z,28.55
2022-08-09T10:56:26.644Z,28.78
2022-08-09T10:58:59.463Z,28.87
2022-08-09T11:03:27.526Z,28.75
2022-08-09T11:04:34.273Z,28.79
2022-08-09T11:07:57.892Z,28.67
2022-08-09T11:11:00.571Z,28.23
2022-08-09T11:13:50.530Z,28.45
2022-08-09T11:16:40.942Z,28.12
2022-08-09T11:19:11.670Z,28.18
2022-08-09T11:22:10.852Z,28.64
2022-08-09T11:25:09.824Z,28.92
2022-08-09T11:28:03.943Z,28.84
2022-08-09T11:30:37.998Z,28.80
2022-08-09T11:33:29.942Z,29.02
2022-08-09T11:36:01.157Z,29.39
2022-08-09T11:38:34.089Z,29.72
2022-08-09T11:41:37.476Z,29.77
2022-08-09T11:44:07.552Z,29.27
2022-08-09T11:47:01.171Z,29.26
2022-08-09T11:50:54.953Z,29.44
2022-08-09T11:54:01.509Z,29.35
2022-08-09T11:56:41.887Z,28.54
2022-08-09T11:59:33.730Z,28.56
2022-08-09T12:02:34.071Z,29.00
2022-08-09T12:04:58.151Z,29.14
2022-08-09T12:07:41.437Z,29.21
2022-08-09T12:10:31.887Z,29.18
2022-08-09T12:13:03.774Z,29.11
2022-08-09T12:15:53.101Z,29.37
2022-08-09T12:18:30.089Z,29.80
2022-08-09T12:21:02.665Z,30.07
2022-08-09T12:23:57.981Z,30.12
2022-08-09T12:26:26.664Z,30.02
2022-08-09T12:29:29.770Z,29.66
2022-08-09T12:31:58.785Z,29.27
2022-08-09T12:34:36.944Z,29.48
2022-08-09T12:37:21.515Z,29.61
2022-08-09T12:40:07.292Z,29.06
2022-08-09T12:42:38.379Z,28.90
2022-08-09T12:45:33.854Z,28.88
2022-08-09T12:48:01.795Z,29.11
2022-08-09T12:53:59.801Z,29.04
2022-08-09T12:56:42.945Z,28.85
2022-08-09T12:59:17.029Z,29.07
2022-08-09T13:01:50.239Z,29.09
2022-08-09T13:04:36.320Z,29.11
2022-08-09T13:07:19.358Z,28.75
2022-08-09T13:10:03.880Z,28.84
2022-08-09T13:12:40.117Z,29.06
2022-08-09T13:15:23.243Z,29.39
2022-08-09T13:18:04.985Z,29.22
2022-08-09T13:20:37.623Z,28.87
2022-08-09T13:24:16.099Z,28.50
2022-08-09T13:26:42.241Z,28.29
2022-08-09T13:29:15.211Z,28.17
2022-08-09T13:32:20.369Z,28.43
2022-08-09T13:34:53.375Z,28.43
2022-08-09T13:37:51.315Z,28.50
2022-08-09T13:41:54.352Z,28.83
2022-08-09T13:43:05.490Z,28.82
2022-08-09T13:46:42.418Z,28.42
2022-08-09T13:48:30.107Z,28.47
2022-08-09T13:50:59.862Z,28.58
2022-08-09T13:53:43.636Z,28.75
2022-08-09T13:56:14.220Z,28.97
2022-08-09T13:58:45.251Z,28.95
2022-08-09T14:01:56.376Z,29.09
2022-08-09T14:04:05.219Z,28.97
2022-08-09T14:06:43.926Z,28.89
2022-08-09T14:09:16.364Z,28.95
2022-08-09T14:11:47.214Z,29.03
2022-08-09T14:14:23.771Z,28.91
2022-08-09T14:16:56.946Z,28.95
2022-08-09T14:19:30.292Z,28.91
2022-08-09T14:22:03.428Z,28.61
2022-08-09T14:24:33.839Z,28.32
2022-08-09T14:27:03.496Z,28.10
2022-08-09T14:30:36.256Z,27.93
2022-08-09T14:32:40.610Z,27.85
2022-08-09T14:35:12.983Z,27.82
2022-08-09T14:38:02.625Z,27.77
2022-08-09T14:41:00.303Z,27.65
2022-08-09T14:43:21.872Z,27.64
2022-08-09T14:46:54.806Z,27.56
2022-08-09T14:48:43.216Z,27.62
2022-08-09T14:51:14.879Z,27.64
2022-08-09T14:53:48.666Z,27.64
2022-08-09T14:56:22.551Z,27.44
2022-08-09T14:58:57.948Z,27.35
2022-08-09T15:01:29.043Z,27.17
2022-08-09T15:03:58.437Z,27.06
2022-08-09T15:06:30.062Z,27.03
2022-08-09T15:08:59.641Z,26.97
2022-08-09T15:11:29.176Z,26.83
2022-08-09T15:14:04.764Z,26.50
2022-08-09T15:16:44.516Z,26.41
2022-08-09T15:19:20.081Z,26.27
2022-08-09T15:21:54.923Z,26.19
2022-08-09T15:24:28.511Z,26.28
2022-08-09T15:26:58.023Z,26.31
2022-08-09T15:30:48.818Z,26.31
2022-08-09T15:32:29.177Z,26.29
2022-08-09T15:35:01.280Z,26.32
2022-08-09T15:37:57.073Z,26.31
2022-08-09T15:40:32.348Z,26.26
2022-08-09T15:43:03.484Z,26.25
2022-08-09T15:45:51.965Z,26.26
2022-08-09T15:48:29.456Z,26.33
2022-08-09T15:54:03.531Z,26.23
2022-08-09T15:56:37.648Z,26.15
2022-08-09T15:59:07.271Z,26.13
2022-08-09T16:01:37.034Z,26.14
2022-08-09T16:04:06.838Z,26.14
2022-08-09T16:06:44.727Z,26.13
2022-08-09T16:09:51.603Z,26.19
2022-08-09T16:12:11.751Z,26.20
2022-08-09T16:14:41.248Z,26.18
2022-08-09T16:17:12.363Z,26.09
2022-08-09T16:19:49.589Z,26.05
2022-08-09T16:22:35.419Z,26.00
2022-08-09T16:25:09.025Z,25.98
2022-08-09T16:27:40.658Z,25.97
2022-08-09T16:30:15.416Z,25.97
2022-08-09T16:33:11.597Z,25.85
2022-08-09T16:35:55.719Z,25.73
2022-08-09T16:38:27.574Z,25.66
2022-08-09T16:41:03.828Z,25.57
2022-08-09T16:43:34.362Z,25.55
2022-08-09T16:46:10.894Z,25.42
2022-08-09T16:48:55.699Z,25.31
2022-08-09T16:51:31.527Z,25.11
2022-08-09T16:54:30.682Z,25.05
2022-08-09T16:56:55.495Z,25.03
2022-08-09T16:59:25.925Z,24.95
2022-08-09T17:02:04.440Z,24.82
2022-08-09T17:04:35.182Z,24.80
2022-08-09T17:08:41.128Z,24.67
2022-08-09T17:10:02.040Z,24.48
2022-08-09T17:12:35.144Z,24.38
2022-08-09T17:15:18.036Z,24.29
2022-08-09T17:18:00.558Z,24.23
2022-08-09T17:20:35.223Z,24.25
2022-08-09T17:23:10.518Z,24.19
2022-08-09T17:25:45.166Z,24.13
2022-08-09T17:28:24.303Z,24.10
2022-08-09T17:30:56.323Z,24.07
2022-08-09T17:33:25.782Z,24.04
2022-08-09T17:36:06.166Z,24.08
2022-08-09T17:38:41.172Z,24.04
2022-08-09T17:41:10.887Z,23.97
2022-08-09T17:43:50.687Z,23.98
2022-08-09T17:46:34.483Z,23.99
2022-08-09T17:49:03.980Z,24.02
2022-08-09T17:51:34.513Z,23.94
2022-08-09T17:54:04.083Z,23.92
2022-08-09T17:56:35.982Z,23.94
2022-08-09T17:59:11.847Z,23.89
2022-08-09T18:02:06.553Z,23.88
2022-08-09T18:04:36.550Z,23.90
2022-08-09T18:07:07.977Z,23.86
2022-08-09T18:09:41.501Z,23.85
2022-08-09T18:12:17.446Z,23.87
2022-08-09T18:14:54.387Z,23.86
2022-08-09T18:18:02.123Z,23.88
2022-08-09T18:20:59.139Z,23.84
2022-08-09T18:23:07.456Z,23.85
2022-08-09T18:25:49.999Z,23.82
2022-08-09T18:30:41.056Z,23.80
2022-08-09T18:31:24.944Z,23.76
2022-08-09T18:34:06.886Z,23.80
2022-08-09T18:36:36.582Z,23.80
2022-08-09T18:39:16.166Z,23.79
2022-08-09T18:41:53.228Z,23.79
2022-08-09T18:44:25.755Z,23.78
2022-08-09T18:47:05.037Z,23.77
2022-08-09T18:49:43.289Z,23.79
2022-08-09T18:53:59.603Z,23.80
2022-08-09T18:56:33.565Z,23.88
2022-08-09T18:59:04.319Z,23.93
2022-08-09T19:01:43.483Z,23.98
2022-08-09T19:04:15.925Z,23.95
2022-08-09T19:06:54.613Z,23.96
2022-08-09T19:10:14.742Z,23.97
2022-08-09T19:12:15.090Z,23.98
2022-08-09T19:14:51.879Z,23.98
2022-08-09T19:17:21.803Z,24.01
2022-08-09T19:19:51.609Z,24.07
2022-08-09T19:22:30.504Z,24.06
2022-08-09T19:25:09.752Z,24.03
2022-08-09T19:27:51.072Z,24.00
2022-08-09T19:30:28.446Z,24.03
2022-08-09T19:32:58.548Z,24.03
2022-08-09T19:35:28.448Z,24.02
2022-08-09T19:38:17.880Z,24.02
2022-08-09T19:40:50.175Z,24.01
2022-08-09T19:44:01.853Z,23.97
2022-08-09T19:46:14.924Z,23.97
2022-08-09T19:49:02.501Z,24.00
2022-08-09T19:51:34.281Z,24.04
2022-08-09T19:54:08.591Z,24.06
2022-08-09T19:56:44.596Z,24.04
2022-08-09T19:59:40.086Z,24.08
2022-08-09T20:02:18.354Z,24.08
2022-08-09T20:04:55.935Z,24.08
2022-08-09T20:07:33.788Z,24.03
2022-08-09T20:10:17.325Z,24.00
2022-08-09T20:12:49.044Z,23.98
2022-08-09T20:16:33.706Z,23.96
2022-08-09T20:18:11.984Z,23.94
2022-08-09T20:20:43.609Z,23.94
2022-08-09T20:23:13.354Z,23.84
2022-08-09T20:25:51.473Z,23.79
2022-08-09T20:28:34.266Z,23.71
2022-08-09T20:31:04.816Z,23.67
2022-08-09T20:33:39.025Z,23.58
2022-08-09T20:36:13.810Z,23.52
2022-08-09T20:39:29.051Z,23.57
2022-08-09T20:41:35.654Z,23.61
2022-08-09T20:44:10.102Z,23.63
2022-08-09T20:46:42.932Z,23.57
2022-08-09T20:49:16.146Z,23.47
2022-08-09T20:51:50.886Z,23.44
2022-08-09T20:54:22.223Z,23.49
2022-08-09T20:56:54.404Z,23.38
2022-08-09T21:00:19.655Z,23.26
2022-08-09T21:02:18.529Z,23.09
2022-08-09T21:05:51.901Z,22.99
2022-08-09T21:07:40.313Z,23.03
2022-08-09T21:10:12.129Z,23.05
2022-08-09T21:15:34.609Z,22.90
2022-08-09T21:18:21.907Z,22.77
2022-08-09T21:20:56.275Z,22.61
2022-08-09T21:23:47.601Z,22.47
2022-08-09T21:26:16.040Z,22.26
2022-08-09T21:28:55.785Z,22.12
2022-08-09T21:31:49.027Z,21.91
2022-08-09T21:34:28.686Z,21.78
2022-08-09T21:36:59.051Z,21.66
2022-08-09T21:39:41.657Z,21.98
2022-08-09T21:42:12.273Z,22.31
2022-08-09T21:44:42.810Z,22.16
2022-08-09T21:47:18.233Z,21.90
2022-08-09T21:49:50.890Z,21.83
2022-08-09T21:53:54.198Z,21.94
2022-08-09T21:56:42.974Z,21.86
2022-08-09T21:59:16.112Z,21.62
2022-08-09T22:01:59.046Z,21.29
2022-08-09T22:04:55.102Z,21.23
2022-08-09T22:07:23.301Z,20.98
2022-08-09T22:10:08.212Z,21.13
2022-08-09T22:12:39.349Z,21.33
2022-08-09T22:15:20.741Z,21.47
2022-08-09T22:17:53.091Z,21.57
2022-08-09T22:20:27.566Z,21.52
2022-08-09T22:23:01.243Z,21.37
2022-08-09T22:26:08.006Z,21.34
2022-08-09T22:28:32.974Z,21.20
2022-08-09T22:31:03.577Z,20.81
2022-08-09T22:33:48.495Z,20.73
2022-08-09T22:36:19.635Z,20.84
2022-08-09T22:38:49.661Z,20.95
2022-08-09T22:41:20.779Z,21.04
2022-08-09T22:44:02.115Z,21.09
2022-08-09T22:48:10.394Z,21.08
2022-08-09T22:49:24.070Z,21.02
2022-08-09T22:51:56.645Z,20.96
2022-08-09T22:54:27.961Z,20.95
2022-08-09T22:56:59.183Z,20.91
2022-08-09T22:59:58.224Z,20.85
2022-08-09T23:02:20.351Z,20.75
2022-08-09T23:04:54.189Z,20.70
2022-08-09T23:08:21.776Z,20.60
2022-08-09T23:10:33.230Z,20.41
2022-08-09T23:13:04.423Z,20.16
2022-08-09T23:15:42.193Z,19.98
2022-08-09T23:18:11.779Z,20.08
2022-08-09T23:20:41.264Z,20.07
2022-08-09T23:23:10.680Z,20.05
2022-08-09T23:25:40.182Z,20.18
2022-08-09T23:28:15.771Z,20.41
2022-08-09T23:30:51.408Z,20.65
2022-08-09T23:33:22.118Z,20.79
2022-08-09T23:36:06.366Z,20.86
2022-08-09T23:38:48.397Z,20.88
2022-08-09T23:41:29.050Z,20.90
2022-08-09T23:44:02.300Z,20.96
2022-08-09T23:46:33.410Z,20.98
2022-08-09T23:49:03.668Z,21.02
2022-08-09T23:51:33.324Z,21.02
2022-08-09T23:54:03.544Z,20.98
2022-08-09T23:56:53.691Z,20.98
2022-08-09T23:59:46.686Z,20.99
